الصفحة الرئيسية
METAR-TAF:

METAR-TAF

مطار :

تشنغدو, جمهورية الصين الشعبية

مطار تشنغدو شوانغليو الدولي

دائرة عرض: 30-40N, خط طول: 104-01E, ارتفاع: 508 متر

مراقبة الطقس الحالي

تاريخ ووقت الإصدار 1ساعة و 9 دقيقة قبل الساعة 06:00UTC
ريح 4 عقدةمن اتجاهات متغيرة
درجة الحرارة 15°درجة مئوية
الرطوبة 44%
ضغط 1020 hPa
الرؤية 10 كم أو أكثر
الغيوم لا تقل 1500 م ولا وجود لمزنة ركامية السحاب الأسود

METAR: ZUUU 190600Z VRB02MPS CAVOK 15/03 Q1020 NOSIG

زمن: 15:09 (07:09 UTC)

توقعات

تاريخ ووقت الإصدار 3ساعات و 3 دقيقة قبل الساعة 04:06UTC
التوقعات صالحة من19 الساعة 06 UTC إلى 20 الساعة 06 UTC
ريح 6 عقدة من الجنوب/الجنوب الغربي
الرؤية: 5000 متر
غيوم متفرقة على ارتفاع 5000 قدم
غشاء
أصبح
من 19 الساعة 22 UTC إلى 19 الساعة 23 UTC
الرؤية: 2500 متر
أصبح
من 20 الساعة 01 UTC إلى 20 الساعة 02 UTC
الرؤية: 5000 متر

TAF: ZUUU 190406Z 1906/2006 20003MPS 5000 BR SCT050 TX14/1907Z TN04/1922Z BECMG 1922/1923 2500 BECMG 2001/2002 5000

أرصاد الطقس والتوقعات من أكثر من 4000 مطار (تقارير الطقس للمطار METAR والتنبؤ بالطقس بالمطارTAF).

المحطات المتاحة هي النقط الصفراء والحمراء على الخريطة.

حرك المؤشر فوق النقطة لمعرفة اسم المحطة.

ثم انقر لمعرفة أرصاد وتوقعات الطقس.

لتغيير الخارطة: اضغط على الأزرار الخضراء مع رمز الصليب الأسود للتكبير. على الزر الأخضر مع شرطة للتصغير، أو على الأسهم الخضراء للخرائط المجاورة.


METAR-TAF: